Main page
METAR-TAF:

METAR-TAF

Airports :

Bordeaux–Mérignac Airport

Bordeaux, France

latitude: 44-50N, longitude: 000-42W, elevation: 49 m

Current weather observation

The report was made 15 minutes ago, at 15:30 UTC
Wind 10 kt from the East/Southeast, varying between East/Northeast and Southeast
Temperature 21°C
Humidity 28%
Pressure 1014 hPa
Visibility 10 km or more
no clouds below 1500 m and no cumulonimbus

METAR: LFBD 041530Z AUTO 11010KT 060V140 CAVOK 21/02 Q1014 NOSIG

Time: 17:45 (15:45 UTC)

Forecast

The report was made 4 hours and 45 minutes ago, at 11:00 UTC
Forecast valid from 04 at 12 UTC to 05 at 18 UTC
Wind 10 kt from the East/Southeast
Visibility 10 km or more
no clouds below 1500 m and no cumulonimbus
Probability 40%
from 05 at 00 UTC to 05 at 06 UTC
Wind 2 kt from variable directions
Visibility: 3000 m
Shallow fog

TAF: LFBD 041100Z 0412/0518 12010KT CAVOK TX21/0415Z TN05/0506Z PROB40 0500/0506 VRB02KT 3000 MIFG

Weather observations and forecasts of more than 4000 airports (METAR and TAF reports).

The available stations are represented by yellow and red dots on the map.

Hover mouse over dot to see the name of the station.

Then click to see weather observations and forecasts.

To change the map : click on the green buttons with a black cross to zoom in, on the green button with a dash to zoom out, or on the green arrows for adjacent maps.


METAR-TAF: